createdAt,value
2023-04-25T06:21:07.454Z,1001.58
2023-04-25T06:31:07.447Z,1001.64
2023-04-25T06:41:07.581Z,1001.62
2023-04-25T06:51:07.482Z,1001.71
2023-04-25T07:01:07.598Z,1001.67
2023-04-25T07:11:07.485Z,1001.80
2023-04-25T07:21:07.675Z,1001.76
2023-04-25T07:31:07.584Z,1001.88
2023-04-25T07:41:07.480Z,1001.96
2023-04-25T07:51:07.681Z,1002.17
2023-04-25T08:01:07.626Z,1002.18
2023-04-25T08:11:07.495Z,1002.22
2023-04-25T08:21:07.601Z,1002.20
2023-04-25T08:31:07.675Z,1002.28
2023-04-25T08:41:07.648Z,1002.37
2023-04-25T09:01:08.047Z,1002.64
2023-04-25T09:11:08.100Z,1002.71
2023-04-25T09:21:13.607Z,1002.99
2023-04-25T09:31:08.181Z,1003.19
2023-04-25T09:41:08.260Z,1003.07
2023-04-25T09:51:08.179Z,1003.04
2023-04-25T10:01:08.142Z,1003.17
2023-04-25T10:11:08.266Z,1003.23
2023-04-25T10:21:07.963Z,1003.35
2023-04-25T10:31:08.257Z,1003.40
2023-04-25T10:41:07.967Z,1003.41
2023-04-25T10:51:08.075Z,1003.72
2023-04-25T11:01:08.007Z,1003.76
2023-04-25T11:11:08.090Z,1003.76
2023-04-25T11:21:08.153Z,1003.83
2023-04-25T11:31:07.973Z,1003.70
2023-04-25T11:41:07.968Z,1003.68
2023-04-25T11:51:08.051Z,1003.72
2023-04-25T12:01:08.064Z,1004.15
2023-04-25T12:11:07.974Z,1004.29
2023-04-25T12:21:08.015Z,1004.36
2023-04-25T12:31:08.014Z,1004.36
2023-04-25T12:41:08.230Z,1004.25
2023-04-25T12:51:08.127Z,1004.33
2023-04-25T13:01:08.379Z,1004.30
2023-04-25T13:11:08.123Z,1004.55
2023-04-25T13:21:08.246Z,1004.48
2023-04-25T13:31:08.221Z,1004.61
2023-04-25T13:41:08.317Z,1004.66
2023-04-25T13:51:08.228Z,1004.83
2023-04-25T14:01:08.245Z,1004.81
2023-04-25T14:11:08.102Z,1004.98
2023-04-25T14:21:08.222Z,1005.25
2023-04-25T14:31:08.217Z,1005.17
2023-04-25T14:41:08.337Z,1005.16
2023-04-25T14:51:08.290Z,1005.08
2023-04-25T15:01:08.430Z,1005.18
2023-04-25T15:11:08.430Z,1005.64
2023-04-25T15:21:08.381Z,1005.59
2023-04-25T15:31:08.501Z,1005.64
2023-04-25T15:41:08.495Z,1005.58
2023-04-25T15:51:08.341Z,1005.69
2023-04-25T16:01:08.511Z,1005.76
2023-04-25T16:11:08.389Z,1005.70
2023-04-25T16:21:08.593Z,1005.64
2023-04-25T16:31:08.509Z,1005.56
2023-04-25T16:41:08.392Z,1005.56
2023-04-25T16:51:08.543Z,1005.51
2023-04-25T17:01:08.544Z,1005.89
2023-04-25T17:11:08.464Z,1006.00
2023-04-25T17:21:08.597Z,1005.94
2023-04-25T17:31:08.595Z,1005.93
2023-04-25T17:41:08.815Z,1005.96
2023-04-25T17:51:08.624Z,1006.20
2023-04-25T18:01:08.580Z,1006.33
2023-04-25T18:11:08.706Z,1006.39
2023-04-25T18:21:08.658Z,1006.65
2023-04-25T18:31:08.580Z,1006.70
2023-04-25T18:41:27.435Z,1006.82
2023-04-25T18:51:08.947Z,1007.05
2023-04-25T19:01:08.834Z,1007.22
2023-04-25T19:11:20.647Z,1007.37
2023-04-25T19:21:08.793Z,1007.51
